West Branch, Iowa
Current Conditions -  °F | °C
As of 6:52 AM on Friday 24 Oct 2014 (Local Time) from KIOW Reporting Station
Moderate Fog Moderate Fog  
Wind Chill: 44°   Ceiling: 100
Heat Index: 47°   Visibility: 0.25mi
Dew Point: 47°   Wind: 7mph
Humidity: 100%   Direction: 160°SSE
Pressure: 30.05"   Gusts: NA
Location:  41.67°N, 91.35°W
Report Text: KIOW 241152Z AUTO 16006KT 1/4SM FG VV001 08/08 A3005 RMK AO2 SLP177 70002 T00830083 10083 20072 58004
Loading
Personal Weather Stations






























Interactive Weather Map New forecast layout! Learn more

10-Day Weather Forecast

Advertisements
Track Severe Weather on mobile